Time,TemperatureF,DewpointF,PressureIn,WindDirection,WindDirectionDegrees,WindSpeedMPH,WindSpeedGustMPH,Humidity,HourlyPrecipIn,Conditions,Clouds,dailyrainin,SoftwareType,DateUTC
2013-01-08 00:00:00,25.9,21.2,30.36,West,270,0.9,1.8,82,0.00,,,0.00,WUHU216HW,2013-01-08 05:00:00,
2013-01-08 00:01:00,25.9,21.2,30.36,West,270,1.6,1.8,82,0.00,,,0.00,WUHU216HW,2013-01-08 05:01:00,
2013-01-08 00:02:00,25.9,21.2,30.36,West,270,1.6,1.8,82,0.00,,,0.00,WUHU216HW,2013-01-08 05:02:00,
2013-01-08 00:07:00,26.1,21.3,30.36,West,270,0.4,1.6,82,0.00,,,0.00,WUHU216HW,2013-01-08 05:07:00,
2013-01-08 00:12:00,26.3,21.8,30.36,WSW,248,0.9,1.3,83,0.00,,,0.00,WUHU216HW,2013-01-08 05:12:00,
2013-01-08 00:17:00,26.3,21.8,30.35,West,270,1.1,1.3,83,0.00,,,0.00,WUHU216HW,2013-01-08 05:17:00,
2013-01-08 00:22:00,26.1,21.3,30.36,WSW,248,1.1,1.3,82,0.00,,,0.00,WUHU216HW,2013-01-08 05:22:00,
2013-01-08 00:27:00,25.7,21.0,30.35,WSW,248,1.1,1.3,82,0.00,,,0.00,WUHU216HW,2013-01-08 05:27:00,
2013-01-08 00:32:00,25.6,20.8,30.36,West,270,1.6,1.6,82,0.00,,,0.00,WUHU216HW,2013-01-08 05:32:00,
2013-01-08 00:37:00,25.7,21.0,30.36,West,270,0.9,1.6,82,0.00,,,0.00,WUHU216HW,2013-01-08 05:37:00,
2013-01-08 00:42:00,25.7,21.0,30.36,WSW,248,0.4,1.6,82,0.00,,,0.00,WUHU216HW,2013-01-08 05:42:00,
2013-01-08 00:47:00,25.7,21.0,30.36,West,270,0.9,1.1,82,0.00,,,0.00,WUHU216HW,2013-01-08 05:47:00,
2013-01-08 00:52:00,25.7,21.0,30.36,WSW,248,0.9,1.1,82,0.00,,,0.00,WUHU216HW,2013-01-08 05:52:00,
2013-01-08 00:57:00,25.6,20.8,30.36,WSW,248,0.7,1.1,82,0.00,,,0.00,WUHU216HW,2013-01-08 05:57:00,
2013-01-08 01:02:00,25.6,20.8,30.36,WSW,248,0.0,0.9,82,0.00,,,0.00,WUHU216HW,2013-01-08 06:02:00,
2013-01-08 01:07:00,25.2,20.5,30.35,WSW,248,0.4,0.9,82,0.00,,,0.00,WUHU216HW,2013-01-08 06:07:00,
2013-01-08 01:12:00,25.0,20.4,30.36,WSW,248,0.0,0.9,82,0.00,,,0.00,WUHU216HW,2013-01-08 06:12:00,
2013-01-08 01:17:00,24.8,20.2,30.36,WSW,248,0.0,0.9,82,0.00,,,0.00,WUHU216HW,2013-01-08 06:17:00,
2013-01-08 01:22:00,24.8,20.4,30.36,WSW,248,0.0,0.0,83,0.00,,,0.00,WUHU216HW,2013-01-08 06:22:00,
2013-01-08 01:27:00,24.5,19.8,30.36,WSW,248,0.0,0.0,82,0.00,,,0.00,WUHU216HW,2013-01-08 06:27:00,
2013-01-08 01:32:00,24.3,19.9,30.36,WSW,248,0.0,0.0,83,0.00,,,0.00,WUHU216HW,2013-01-08 06:32:00,
2013-01-08 01:37:00,24.3,19.9,30.35,SSW,203,0.0,0.4,83,0.00,,,0.00,WUHU216HW,2013-01-08 06:37:00,
2013-01-08 01:42:00,24.1,20.0,30.36,SW,225,0.0,0.4,84,0.00,,,0.00,WUHU216HW,2013-01-08 06:42:00,
2013-01-08 01:47:00,24.1,19.7,30.35,SW,225,0.0,0.2,83,0.00,,,0.00,WUHU216HW,2013-01-08 06:47:00,
2013-01-08 01:52:00,24.1,19.7,30.35,SW,225,0.0,0.4,83,0.00,,,0.00,WUHU216HW,2013-01-08 06:52:00,
2013-01-08 01:58:00,24.1,20.0,30.35,SW,225,0.0,0.4,84,0.00,,,0.00,WUHU216HW,2013-01-08 06:58:00,
2013-01-08 02:03:00,24.1,20.0,30.36,WSW,248,0.2,0.2,84,0.00,,,0.00,WUHU216HW,2013-01-08 07:03:00,
2013-01-08 02:08:00,24.1,20.3,30.35,SW,225,0.4,0.4,85,0.00,,,0.00,WUHU216HW,2013-01-08 07:08:00,
2013-01-08 02:13:00,24.1,20.3,30.36,SW,225,0.0,0.4,85,0.00,,,0.00,WUHU216HW,2013-01-08 07:13:00,
2013-01-08 02:18:00,24.1,20.0,30.36,SW,225,0.0,0.0,84,0.00,,,0.00,WUHU216HW,2013-01-08 07:18:00,
2013-01-08 02:22:00,24.1,20.0,30.35,SW,225,0.0,0.0,84,0.00,,,0.00,WUHU216HW,2013-01-08 07:22:00,
2013-01-08 02:27:00,24.1,20.0,30.35,SW,225,0.0,0.0,84,0.00,,,0.00,WUHU216HW,2013-01-08 07:27:00,
2013-01-08 02:33:00,24.1,20.0,30.35,SW,225,0.0,0.0,84,0.00,,,0.00,WUHU216HW,2013-01-08 07:33:00,
2013-01-08 02:38:00,24.1,20.0,30.36,WSW,248,0.2,0.2,84,0.00,,,0.00,WUHU216HW,2013-01-08 07:38:00,
2013-01-08 02:42:00,23.9,19.8,30.36,WSW,248,0.0,0.2,84,0.00,,,0.00,WUHU216HW,2013-01-08 07:42:00,
2013-01-08 02:47:00,23.8,19.6,30.36,WSW,248,0.0,0.0,84,0.00,,,0.00,WUHU216HW,2013-01-08 07:47:00,
2013-01-08 02:52:00,23.8,19.6,30.35,WSW,248,1.1,1.1,84,0.00,,,0.00,WUHU216HW,2013-01-08 07:52:00,
2013-01-08 02:57:00,24.1,20.3,30.35,West,270,0.9,1.1,85,0.00,,,0.00,WUHU216HW,2013-01-08 07:57:00,
2013-01-08 03:02:00,24.1,20.3,30.36,West,270,0.0,1.1,85,0.00,,,0.00,WUHU216HW,2013-01-08 08:02:00,
2013-01-08 03:07:00,24.1,20.3,30.35,West,270,0.0,0.4,85,0.00,,,0.00,WUHU216HW,2013-01-08 08:07:00,
2013-01-08 03:12:00,23.8,19.9,30.36,West,270,0.0,0.2,85,0.00,,,0.00,WUHU216HW,2013-01-08 08:12:00,
2013-01-08 03:17:00,23.9,20.3,30.36,SSW,203,0.0,0.0,86,0.00,,,0.00,WUHU216HW,2013-01-08 08:17:00,
2013-01-08 03:22:00,23.8,20.2,30.35,SSW,203,0.0,0.0,86,0.00,,,0.00,WUHU216HW,2013-01-08 08:22:00,
2013-01-08 03:27:00,23.6,19.7,30.35,SSW,203,0.0,0.0,85,0.00,,,0.00,WUHU216HW,2013-01-08 08:27:00,
2013-01-08 03:32:00,23.4,19.5,30.35,WSW,248,0.2,0.4,85,0.00,,,0.00,WUHU216HW,2013-01-08 08:32:00,
2013-01-08 03:37:00,23.6,19.7,30.34,WSW,248,0.0,0.4,85,0.00,,,0.00,WUHU216HW,2013-01-08 08:37:00,
2013-01-08 03:42:00,23.4,19.3,30.35,WNW,293,0.4,0.4,84,0.00,,,0.00,WUHU216HW,2013-01-08 08:42:00,
2013-01-08 03:47:00,23.4,19.5,30.35,West,270,0.7,1.1,85,0.00,,,0.00,WUHU216HW,2013-01-08 08:47:00,
2013-01-08 03:52:00,23.4,19.5,30.35,West,270,0.0,1.1,85,0.00,,,0.00,WUHU216HW,2013-01-08 08:52:00,
2013-01-08 03:57:00,23.4,19.5,30.35,West,270,0.4,0.9,85,0.00,,,0.00,WUHU216HW,2013-01-08 08:57:00,
2013-01-08 04:02:00,23.6,19.7,30.35,West,270,0.4,0.9,85,0.00,,,0.00,WUHU216HW,2013-01-08 09:02:00,
2013-01-08 04:07:00,23.9,20.1,30.35,WNW,293,0.9,0.9,85,0.00,,,0.00,WUHU216HW,2013-01-08 09:07:00,
2013-01-08 04:12:00,24.1,20.5,30.35,WNW,293,0.0,0.9,86,0.00,,,0.00,WUHU216HW,2013-01-08 09:12:00,
2013-01-08 04:17:00,24.8,21.2,30.35,West,270,0.7,1.3,86,0.00,,,0.00,WUHU216HW,2013-01-08 09:17:00,
2013-01-08 04:22:00,25.7,22.2,30.34,West,270,0.4,1.3,86,0.00,,,0.00,WUHU216HW,2013-01-08 09:22:00,
2013-01-08 04:27:00,26.3,22.3,30.35,West,270,1.1,1.1,85,0.00,,,0.00,WUHU216HW,2013-01-08 09:27:00,
2013-01-08 04:32:00,26.5,22.5,30.35,South,180,0.0,1.1,85,0.00,,,0.00,WUHU216HW,2013-01-08 09:32:00,
2013-01-08 04:37:00,25.9,22.0,30.34,WSW,248,0.0,1.1,85,0.00,,,0.00,WUHU216HW,2013-01-08 09:37:00,
2013-01-08 04:42:00,25.2,21.1,30.35,SW,225,0.4,0.4,84,0.00,,,0.00,WUHU216HW,2013-01-08 09:42:00,
2013-01-08 04:47:00,24.8,20.7,30.34,West,270,0.2,0.4,84,0.00,,,0.00,WUHU216HW,2013-01-08 09:47:00,
2013-01-08 04:52:00,24.7,20.5,30.34,WNW,293,0.0,0.4,84,0.00,,,0.00,WUHU216HW,2013-01-08 09:52:00,
2013-01-08 04:57:00,24.5,20.3,30.34,West,270,0.2,0.4,84,0.00,,,0.00,WUHU216HW,2013-01-08 09:57:00,
2013-01-08 05:02:00,24.3,20.2,30.35,West,270,0.0,0.4,84,0.00,,,0.00,WUHU216HW,2013-01-08 10:02:00,
2013-01-08 05:07:00,24.1,20.0,30.35,West,270,0.0,0.4,84,0.00,,,0.00,WUHU216HW,2013-01-08 10:07:00,
2013-01-08 05:12:00,23.8,19.6,30.34,WNW,293,0.0,0.4,84,0.00,,,0.00,WUHU216HW,2013-01-08 10:12:00,
2013-01-08 05:17:00,23.8,19.9,30.35,WNW,293,0.4,0.4,85,0.00,,,0.00,WUHU216HW,2013-01-08 10:17:00,
2013-01-08 05:22:00,23.8,19.9,30.35,WNW,293,0.0,0.7,85,0.00,,,0.00,WUHU216HW,2013-01-08 10:22:00,
2013-01-08 05:27:00,24.1,20.3,30.34,WNW,293,0.2,0.7,85,0.00,,,0.00,WUHU216HW,2013-01-08 10:27:00,
2013-01-08 05:32:00,23.9,20.1,30.35,WNW,293,0.0,0.7,85,0.00,,,0.00,WUHU216HW,2013-01-08 10:32:00,
2013-01-08 05:37:00,24.1,20.3,30.33,WNW,293,0.0,0.4,85,0.00,,,0.00,WUHU216HW,2013-01-08 10:37:00,
2013-01-08 05:42:00,24.7,21.1,30.35,WNW,293,0.0,0.4,86,0.00,,,0.00,WUHU216HW,2013-01-08 10:42:00,
2013-01-08 05:47:00,24.8,21.5,30.34,West,270,0.0,0.4,87,0.00,,,0.00,WUHU216HW,2013-01-08 10:47:00,
2013-01-08 05:52:00,24.8,21.5,30.34,NNW,338,0.0,0.2,87,0.00,,,0.00,WUHU216HW,2013-01-08 10:52:00,
2013-01-08 05:57:00,24.7,21.1,30.35,NNW,338,0.0,0.2,86,0.00,,,0.00,WUHU216HW,2013-01-08 10:57:00,
2013-01-08 06:02:00,24.7,20.8,30.35,NW,315,0.0,0.2,85,0.00,,,0.00,WUHU216HW,2013-01-08 11:02:00,
2013-01-08 06:07:00,24.8,21.0,30.35,NW,315,0.0,0.4,85,0.00,,,0.00,WUHU216HW,2013-01-08 11:07:00,
2013-01-08 06:12:00,25.0,21.4,30.35,NW,315,0.0,0.4,86,0.00,,,0.00,WUHU216HW,2013-01-08 11:12:00,
2013-01-08 06:17:00,25.2,21.3,30.34,NW,315,0.0,0.0,85,0.00,,,0.00,WUHU216HW,2013-01-08 11:17:00,
2013-01-08 06:22:00,26.3,22.3,30.34,NW,315,0.0,0.4,85,0.00,,,0.00,WUHU216HW,2013-01-08 11:22:00,
2013-01-08 06:27:00,27.0,23.0,30.36,NW,315,0.4,1.1,85,0.00,,,0.00,WUHU216HW,2013-01-08 11:27:00,
2013-01-08 06:32:00,28.3,24.3,30.36,WNW,293,1.1,1.1,85,0.00,,,0.00,WUHU216HW,2013-01-08 11:32:00,
2013-01-08 06:37:00,29.3,24.9,30.36,NW,315,0.9,1.1,83,0.00,,,0.00,WUHU216HW,2013-01-08 11:37:00,
2013-01-08 06:42:00,30.1,25.6,30.36,WNW,293,1.1,1.3,83,0.00,,,0.00,WUHU216HW,2013-01-08 11:42:00,
2013-01-08 06:47:00,30.4,25.6,30.37,WSW,248,0.4,1.6,82,0.00,,,0.00,WUHU216HW,2013-01-08 11:47:00,
2013-01-08 06:52:00,30.1,24.9,30.37,NW,315,0.0,1.6,81,0.00,,,0.00,WUHU216HW,2013-01-08 11:52:00,
2013-01-08 06:57:00,29.5,24.7,30.37,WSW,248,0.0,1.3,82,0.00,,,0.00,WUHU216HW,2013-01-08 11:57:00,
2013-01-08 07:02:00,28.8,23.9,30.37,NW,315,0.0,0.4,82,0.00,,,0.00,WUHU216HW,2013-01-08 12:02:00,
2013-01-08 07:07:00,28.4,24.0,30.37,North,0,0.0,0.4,83,0.00,,,0.00,WUHU216HW,2013-01-08 12:07:00,
2013-01-08 07:12:00,28.3,23.8,30.37,North,0,0.0,0.7,83,0.00,,,0.00,WUHU216HW,2013-01-08 12:12:00,
2013-01-08 07:17:00,27.9,23.4,30.37,North,0,0.0,0.7,83,0.00,,,0.00,WUHU216HW,2013-01-08 12:17:00,
2013-01-08 07:22:00,28.4,24.2,30.37,SSE,158,0.0,0.7,84,0.00,,,0.00,WUHU216HW,2013-01-08 12:22:00,
2013-01-08 07:27:00,28.8,24.6,30.36,WNW,293,0.2,1.1,84,0.00,,,0.00,WUHU216HW,2013-01-08 12:27:00,
2013-01-08 07:32:00,28.6,24.4,30.37,NNW,338,0.0,1.1,84,0.00,,,0.00,WUHU216HW,2013-01-08 12:32:00,
2013-01-08 07:37:00,28.4,24.0,30.38,NNW,338,0.0,0.4,83,0.00,,,0.00,WUHU216HW,2013-01-08 12:37:00,
2013-01-08 07:38:00,28.4,24.2,30.38,NNW,338,0.0,0.0,84,0.00,,,0.00,WUHU216HW,2013-01-08 12:38:00,
2013-01-08 07:42:00,28.4,24.2,30.38,NNW,338,0.0,0.0,84,0.00,,,0.00,WUHU216HW,2013-01-08 12:42:00,
2013-01-08 07:47:00,28.4,24.2,30.38,NNW,338,0.0,0.0,84,0.00,,,0.00,WUHU216HW,2013-01-08 12:47:00,
2013-01-08 08:00:00,30.2,25.8,30.36,WSW,248,0.0,0.0,83,0.00,,,0.00,WUHU216HW,2013-01-08 13:00:00,
2013-01-08 08:05:00,31.1,26.3,30.38,NW,315,0.7,0.7,82,0.00,,,0.00,WUHU216HW,2013-01-08 13:05:00,
2013-01-08 08:10:00,32.0,27.2,30.38,NNW,338,0.4,0.7,82,0.00,,,0.00,WUHU216HW,2013-01-08 13:10:00,
2013-01-08 08:15:00,32.6,27.1,30.37,NNW,338,0.9,0.9,80,0.00,,,0.00,WUHU216HW,2013-01-08 13:15:00,
2013-01-08 08:20:00,32.8,27.3,30.39,NW,315,0.4,0.9,80,0.00,,,0.00,WUHU216HW,2013-01-08 13:20:00,
2013-01-08 08:25:00,33.3,27.8,30.39,NW,315,0.7,0.9,80,0.00,,,0.00,WUHU216HW,2013-01-08 13:25:00,
2013-01-08 08:30:00,33.7,27.8,30.38,NW,315,0.7,1.1,79,0.00,,,0.00,WUHU216HW,2013-01-08 13:30:00,
2013-01-08 08:35:00,34.0,28.1,30.38,WNW,293,0.7,1.1,79,0.00,,,0.00,WUHU216HW,2013-01-08 13:35:00,
2013-01-08 08:40:00,34.7,28.5,30.39,NW,315,1.3,1.3,78,0.00,,,0.00,WUHU216HW,2013-01-08 13:40:00,
2013-01-08 08:45:00,34.9,28.7,30.39,WNW,293,0.4,2.0,78,0.00,,,0.00,WUHU216HW,2013-01-08 13:45:00,
2013-01-08 08:50:00,35.1,28.9,30.39,WNW,293,1.1,2.0,78,0.00,,,0.00,WUHU216HW,2013-01-08 13:50:00,
2013-01-08 08:55:00,36.0,29.4,30.39,WNW,293,1.1,1.6,77,0.00,,,0.00,WUHU216HW,2013-01-08 13:55:00,
2013-01-08 09:00:00,36.4,29.5,30.39,WNW,293,1.1,1.6,76,0.00,,,0.00,WUHU216HW,2013-01-08 14:00:00,
2013-01-08 09:05:00,36.9,30.3,30.39,West,270,0.9,2.7,77,0.00,,,0.00,WUHU216HW,2013-01-08 14:05:00,
2013-01-08 09:10:00,37.1,30.5,30.39,West,270,1.1,2.7,77,0.00,,,0.00,WUHU216HW,2013-01-08 14:10:00,
2013-01-08 09:15:00,37.3,30.7,30.40,West,270,1.1,2.0,77,0.00,,,0.00,WUHU216HW,2013-01-08 14:15:00,
2013-01-08 09:20:00,37.3,30.7,30.39,WNW,293,0.7,2.0,77,0.00,,,0.00,WUHU216HW,2013-01-08 14:20:00,
2013-01-08 09:25:00,37.8,30.9,30.40,WNW,293,1.1,1.6,76,0.00,,,0.00,WUHU216HW,2013-01-08 14:25:00,
2013-01-08 09:30:00,38.3,31.1,30.41,WNW,293,1.1,2.2,75,0.00,,,0.00,WUHU216HW,2013-01-08 14:30:00,
2013-01-08 09:35:00,38.5,31.2,30.40,WNW,293,1.8,2.5,75,0.00,,,0.00,WUHU216HW,2013-01-08 14:35:00,
2013-01-08 09:40:00,38.9,31.6,30.40,West,270,1.3,2.5,75,0.00,,,0.00,WUHU216HW,2013-01-08 14:40:00,
2013-01-08 09:45:00,39.2,32.0,30.41,West,270,1.1,2.5,75,0.00,,,0.00,WUHU216HW,2013-01-08 14:45:00,
2013-01-08 09:50:00,39.2,31.6,30.41,WSW,248,1.6,2.2,74,0.00,,,0.00,WUHU216HW,2013-01-08 14:50:00,
2013-01-08 09:55:00,39.6,32.0,30.41,West,270,1.6,2.2,74,0.00,,,0.00,WUHU216HW,2013-01-08 14:55:00,
2013-01-08 10:00:00,40.0,32.0,30.40,West,270,1.3,2.5,73,0.00,,,0.00,WUHU216HW,2013-01-08 15:00:00,
2013-01-08 10:05:00,40.1,32.1,30.40,WSW,248,2.0,2.5,73,0.00,,,0.00,WUHU216HW,2013-01-08 15:05:00,
2013-01-08 10:10:00,40.5,32.5,30.40,West,270,2.0,2.5,73,0.00,,,0.00,WUHU216HW,2013-01-08 15:10:00,
2013-01-08 10:15:00,40.9,32.5,30.40,SW,225,1.8,2.0,72,0.00,,,0.00,WUHU216HW,2013-01-08 15:15:00,
2013-01-08 10:20:00,41.4,32.8,30.39,WNW,293,0.9,2.0,71,0.00,,,0.00,WUHU216HW,2013-01-08 15:20:00,
2013-01-08 10:25:00,41.6,32.6,30.40,WSW,248,1.3,2.9,70,0.00,,,0.00,WUHU216HW,2013-01-08 15:25:00,
2013-01-08 10:30:00,41.8,32.8,30.39,WSW,248,1.6,2.9,70,0.00,,,0.00,WUHU216HW,2013-01-08 15:30:00,
2013-01-08 10:35:00,42.1,33.1,30.39,NW,315,0.7,2.2,70,0.00,,,0.00,WUHU216HW,2013-01-08 15:35:00,
2013-01-08 10:40:00,42.5,33.1,30.39,West,270,0.7,2.2,69,0.00,,,0.00,WUHU216HW,2013-01-08 15:40:00,
2013-01-08 10:45:00,42.8,33.0,30.39,WNW,293,1.8,2.0,68,0.00,,,0.00,WUHU216HW,2013-01-08 15:45:00,
2013-01-08 10:50:00,43.6,33.8,30.39,West,270,1.3,2.0,68,0.00,,,0.00,WUHU216HW,2013-01-08 15:50:00,
2013-01-08 10:55:00,43.7,33.1,30.39,WSW,248,2.5,3.6,66,0.00,,,0.00,WUHU216HW,2013-01-08 15:55:00,
2013-01-08 11:00:00,44.1,33.5,30.39,NW,315,1.3,3.6,66,0.00,,,0.00,WUHU216HW,2013-01-08 16:00:00,
2013-01-08 11:05:00,44.6,33.6,30.39,WNW,293,3.1,3.4,65,0.00,,,0.00,WUHU216HW,2013-01-08 16:05:00,
2013-01-08 11:11:00,45.0,33.1,30.39,West,270,2.5,5.4,63,0.00,,,0.00,WUHU216HW,2013-01-08 16:11:00,
2013-01-08 11:16:00,45.0,32.8,30.38,WNW,293,2.0,5.4,62,0.00,,,0.00,WUHU216HW,2013-01-08 16:16:00,
2013-01-08 11:21:00,45.5,33.7,30.38,WSW,248,2.2,4.3,63,0.00,,,0.00,WUHU216HW,2013-01-08 16:21:00,
2013-01-08 11:26:00,46.3,33.6,30.38,West,270,2.5,3.4,61,0.00,,,0.00,WUHU216HW,2013-01-08 16:26:00,
2013-01-08 11:29:00,46.4,33.7,30.37,WNW,293,3.1,3.1,61,0.00,,,0.00,WUHU216HW,2013-01-08 16:29:00,
2013-01-08 11:31:00,46.4,33.7,30.37,WNW,293,3.1,3.8,61,0.00,,,0.00,WUHU216HW,2013-01-08 16:31:00,
2013-01-08 11:36:00,46.4,33.7,30.37,WNW,293,3.1,3.4,61,0.00,,,0.00,WUHU216HW,2013-01-08 16:36:00,
2013-01-08 11:59:00,47.5,33.5,30.36,WNW,293,2.5,2.5,58,0.00,,,0.00,WUHU216HW,2013-01-08 16:59:00,
2013-01-08 12:04:00,47.9,32.9,30.36,SW,225,1.6,3.1,56,0.00,,,0.00,WUHU216HW,2013-01-08 17:04:00,
2013-01-08 12:09:00,48.2,33.2,30.36,SW,225,0.4,3.1,56,0.00,,,0.00,WUHU216HW,2013-01-08 17:09:00,
2013-01-08 12:14:00,48.8,33.3,30.35,ESE,113,0.4,1.8,55,0.00,,,0.00,WUHU216HW,2013-01-08 17:14:00,
2013-01-08 12:19:00,49.5,33.0,30.35,West,270,1.6,5.6,53,0.00,,,0.00,WUHU216HW,2013-01-08 17:19:00,
2013-01-08 12:24:00,50.0,33.1,30.35,WSW,248,2.9,5.6,52,0.00,,,0.00,WUHU216HW,2013-01-08 17:24:00,
2013-01-08 12:29:00,50.0,32.2,30.34,West,270,2.9,4.0,50,0.00,,,0.00,WUHU216HW,2013-01-08 17:29:00,
2013-01-08 12:34:00,50.2,32.9,30.33,WSW,248,1.3,4.0,51,0.00,,,0.00,WUHU216HW,2013-01-08 17:34:00,
2013-01-08 12:39:00,50.2,32.9,30.33,WSW,248,2.5,4.0,51,0.00,,,0.00,WUHU216HW,2013-01-08 17:39:00,
2013-01-08 12:44:00,50.8,31.8,30.34,SW,225,0.7,2.9,48,0.00,,,0.00,WUHU216HW,2013-01-08 17:44:00,
2013-01-08 12:50:00,50.8,32.3,30.33,West,270,1.3,2.2,49,0.00,,,0.00,WUHU216HW,2013-01-08 17:50:00,
2013-01-08 12:55:00,50.8,32.3,30.33,West,270,2.0,2.7,49,0.00,,,0.00,WUHU216HW,2013-01-08 17:55:00,
2013-01-08 13:00:00,50.8,31.8,30.33,SSW,203,1.6,2.7,48,0.00,,,0.00,WUHU216HW,2013-01-08 18:00:00,
2013-01-08 13:05:00,50.6,32.7,30.33,West,270,1.3,2.2,50,0.00,,,0.00,WUHU216HW,2013-01-08 18:05:00,
2013-01-08 13:10:00,51.1,31.0,30.33,North,0,2.0,5.1,46,0.00,,,0.00,WUHU216HW,2013-01-08 18:10:00,
2013-01-08 13:15:00,51.1,32.0,30.32,WNW,293,2.0,5.1,48,0.00,,,0.00,WUHU216HW,2013-01-08 18:15:00,
2013-01-08 13:20:00,51.7,31.4,30.32,NW,315,1.8,2.9,46,0.00,,,0.00,WUHU216HW,2013-01-08 18:20:00,
2013-01-08 13:25:00,51.8,31.1,30.32,WSW,248,1.1,2.7,45,0.00,,,0.00,WUHU216HW,2013-01-08 18:25:00,
2013-01-08 13:30:00,52.0,31.8,30.32,West,270,0.4,2.7,46,0.00,,,0.00,WUHU216HW,2013-01-08 18:30:00,
2013-01-08 13:35:00,52.2,32.0,30.32,WSW,248,1.6,2.9,46,0.00,,,0.00,WUHU216HW,2013-01-08 18:35:00,
2013-01-08 13:40:00,52.7,32.4,30.32,WSW,248,2.5,2.9,46,0.00,,,0.00,WUHU216HW,2013-01-08 18:40:00,
2013-01-08 13:45:00,53.1,31.1,30.31,WSW,248,0.4,3.8,43,0.00,,,0.00,WUHU216HW,2013-01-08 18:45:00,
2013-01-08 13:50:00,53.5,31.4,30.31,SW,225,4.0,4.0,43,0.00,,,0.00,WUHU216HW,2013-01-08 18:50:00,
2013-01-08 13:55:00,53.1,31.6,30.31,NW,315,0.7,4.0,44,0.00,,,0.00,WUHU216HW,2013-01-08 18:55:00,
2013-01-08 14:00:00,52.7,30.8,30.31,West,270,2.9,4.0,43,0.00,,,0.00,WUHU216HW,2013-01-08 19:00:00,
2013-01-08 14:05:00,52.9,30.9,30.31,WSW,248,1.6,3.1,43,0.00,,,0.00,WUHU216HW,2013-01-08 19:05:00,
2013-01-08 14:10:00,53.3,31.2,30.31,WNW,293,1.8,3.6,43,0.00,,,0.00,WUHU216HW,2013-01-08 19:10:00,
2013-01-08 14:15:00,53.6,31.0,30.31,WNW,293,1.8,3.6,42,0.00,,,0.00,WUHU216HW,2013-01-08 19:15:00,
2013-01-08 14:20:00,53.8,30.1,30.31,SW,225,3.4,3.8,40,0.00,,,0.00,WUHU216HW,2013-01-08 19:20:00,
2013-01-08 14:25:00,53.6,30.4,30.31,WNW,293,2.0,3.8,41,0.00,,,0.00,WUHU216HW,2013-01-08 19:25:00,
2013-01-08 14:30:00,53.6,30.4,30.30,NW,315,1.1,3.8,41,0.00,,,0.00,WUHU216HW,2013-01-08 19:30:00,
2013-01-08 14:35:00,53.6,29.9,30.31,WSW,248,1.3,4.0,40,0.00,,,0.00,WUHU216HW,2013-01-08 19:35:00,
2013-01-08 14:40:00,53.6,29.9,30.30,West,270,2.5,4.0,40,0.00,,,0.00,WUHU216HW,2013-01-08 19:40:00,
2013-01-08 14:45:00,53.6,29.9,30.31,West,270,2.0,3.4,40,0.00,,,0.00,WUHU216HW,2013-01-08 19:45:00,
2013-01-08 14:50:00,53.6,29.9,30.30,WNW,293,2.0,3.1,40,0.00,,,0.00,WUHU216HW,2013-01-08 19:50:00,
2013-01-08 14:55:00,53.6,30.4,30.31,SW,225,4.0,4.0,41,0.00,,,0.00,WUHU216HW,2013-01-08 19:55:00,
2013-01-08 15:00:00,53.6,29.9,30.31,WNW,293,2.5,4.0,40,0.00,,,0.00,WUHU216HW,2013-01-08 20:00:00,
2013-01-08 15:05:00,53.5,29.7,30.31,WSW,248,1.6,4.0,40,0.00,,,0.00,WUHU216HW,2013-01-08 20:05:00,
2013-01-08 15:10:00,53.5,29.7,30.32,WSW,248,2.0,3.8,40,0.00,,,0.00,WUHU216HW,2013-01-08 20:10:00,
2013-01-08 15:15:00,53.5,29.7,30.32,WSW,248,4.5,4.5,40,0.00,,,0.00,WUHU216HW,2013-01-08 20:15:00,
2013-01-08 15:20:00,53.3,28.2,30.32,WSW,248,3.8,4.5,38,0.00,,,0.00,WUHU216HW,2013-01-08 20:20:00,
2013-01-08 15:25:00,53.3,27.6,30.32,WSW,248,2.5,3.8,37,0.00,,,0.00,WUHU216HW,2013-01-08 20:25:00,
2013-01-08 15:30:00,53.1,28.0,30.32,WSW,248,2.5,3.8,38,0.00,,,0.00,WUHU216HW,2013-01-08 20:30:00,
2013-01-08 15:35:00,52.9,27.9,30.32,SSW,203,0.4,3.6,38,0.00,,,0.00,WUHU216HW,2013-01-08 20:35:00,
2013-01-08 15:40:00,53.1,28.0,30.32,NNW,338,2.9,4.0,38,0.00,,,0.00,WUHU216HW,2013-01-08 20:40:00,
2013-01-08 15:45:00,52.9,27.2,30.32,SW,225,2.0,4.0,37,0.00,,,0.00,WUHU216HW,2013-01-08 20:45:00,
2013-01-08 15:50:00,52.9,27.9,30.32,WSW,248,1.6,3.4,38,0.00,,,0.00,WUHU216HW,2013-01-08 20:50:00,
2013-01-08 15:55:00,52.6,27.5,30.32,SSW,203,7.6,7.6,38,0.00,,,0.00,WUHU216HW,2013-01-08 20:55:00,
2013-01-08 16:00:00,52.2,28.6,30.32,SSW,203,0.4,7.6,40,0.00,,,0.00,WUHU216HW,2013-01-08 21:00:00,
2013-01-08 16:05:00,51.7,28.6,30.32,NNW,338,1.8,2.7,41,0.00,,,0.00,WUHU216HW,2013-01-08 21:05:00,
2013-01-08 16:10:00,51.7,28.6,30.32,West,270,2.0,3.4,41,0.00,,,0.00,WUHU216HW,2013-01-08 21:10:00,
2013-01-08 16:15:00,51.8,28.8,30.33,WSW,248,1.8,3.4,41,0.00,,,0.00,WUHU216HW,2013-01-08 21:15:00,
2013-01-08 16:20:00,51.5,28.5,30.33,WSW,248,1.8,2.5,41,0.00,,,0.00,WUHU216HW,2013-01-08 21:20:00,
2013-01-08 16:25:00,51.3,28.4,30.33,West,270,2.5,2.5,41,0.00,,,0.00,WUHU216HW,2013-01-08 21:25:00,
2013-01-08 16:30:00,51.1,28.2,30.33,WNW,293,1.1,2.5,41,0.00,,,0.00,WUHU216HW,2013-01-08 21:30:00,
2013-01-08 16:35:00,50.8,28.5,30.33,West,270,0.7,2.0,42,0.00,,,0.00,WUHU216HW,2013-01-08 21:35:00,
2013-01-08 16:40:00,50.0,27.7,30.33,WNW,293,0.4,1.1,42,0.00,,,0.00,WUHU216HW,2013-01-08 21:40:00,
2013-01-08 16:45:00,49.3,27.6,30.33,NW,315,0.0,1.1,43,0.00,,,0.00,WUHU216HW,2013-01-08 21:45:00,
2013-01-08 16:50:00,49.1,27.5,30.32,NW,315,0.0,0.9,43,0.00,,,0.00,WUHU216HW,2013-01-08 21:50:00,
2013-01-08 16:55:00,48.2,27.7,30.33,NNW,338,0.0,0.7,45,0.00,,,0.00,WUHU216HW,2013-01-08 21:55:00,
2013-01-08 17:00:00,47.7,27.3,30.33,NNW,338,0.0,0.7,45,0.00,,,0.00,WUHU216HW,2013-01-08 22:00:00,
2013-01-08 17:05:00,46.6,26.3,30.34,NNW,338,0.0,0.0,45,0.00,,,0.00,WUHU216HW,2013-01-08 22:05:00,
2013-01-08 17:10:00,46.3,25.9,30.34,NNW,338,0.0,0.0,45,0.00,,,0.00,WUHU216HW,2013-01-08 22:10:00,
2013-01-08 17:15:00,45.5,25.8,30.33,East,90,0.0,0.4,46,0.00,,,0.00,WUHU216HW,2013-01-08 22:15:00,
2013-01-08 17:20:00,44.8,25.2,30.34,ESE,113,0.2,0.4,46,0.00,,,0.00,WUHU216HW,2013-01-08 22:20:00,
2013-01-08 17:25:00,44.3,25.2,30.34,ESE,113,0.0,0.4,47,0.00,,,0.00,WUHU216HW,2013-01-08 22:25:00,
2013-01-08 17:30:00,43.9,25.5,30.34,SSW,203,0.0,0.4,48,0.00,,,0.00,WUHU216HW,2013-01-08 22:30:00,
2013-01-08 17:35:00,44.1,25.7,30.35,SSE,158,0.2,0.2,48,0.00,,,0.00,WUHU216HW,2013-01-08 22:35:00,
2013-01-08 17:40:00,44.3,25.7,30.35,SSW,203,0.0,1.1,48,0.00,,,0.00,WUHU216HW,2013-01-08 22:40:00,
2013-01-08 17:45:00,43.9,25.5,30.36,SE,135,0.0,1.1,48,0.00,,,0.00,WUHU216HW,2013-01-08 22:45:00,
2013-01-08 17:50:00,44.5,25.9,30.36,NW,315,0.0,0.9,48,0.00,,,0.00,WUHU216HW,2013-01-08 22:50:00,
2013-01-08 17:55:00,44.3,25.7,30.36,NW,315,0.4,0.9,48,0.00,,,0.00,WUHU216HW,2013-01-08 22:55:00,
2013-01-08 18:00:00,43.9,26.0,30.35,ESE,113,0.0,0.4,49,0.00,,,0.00,WUHU216HW,2013-01-08 23:00:00,
2013-01-08 18:05:00,43.4,25.5,30.35,SE,135,0.0,0.9,49,0.00,,,0.00,WUHU216HW,2013-01-08 23:05:00,
2013-01-08 18:10:00,42.8,26.5,30.35,ENE,68,0.9,0.9,52,0.00,,,0.00,WUHU216HW,2013-01-08 23:10:00,
2013-01-08 18:15:00,42.5,26.6,30.36,East,90,0.4,1.6,53,0.00,,,0.00,WUHU216HW,2013-01-08 23:15:00,
2013-01-08 18:20:00,42.1,26.2,30.35,ESE,113,0.9,1.6,53,0.00,,,0.00,WUHU216HW,2013-01-08 23:20:00,
2013-01-08 18:25:00,41.4,26.4,30.36,ESE,113,0.4,1.1,55,0.00,,,0.00,WUHU216HW,2013-01-08 23:25:00,
2013-01-08 18:30:00,40.9,26.3,30.36,SE,135,0.0,0.9,56,0.00,,,0.00,WUHU216HW,2013-01-08 23:30:00,
2013-01-08 18:35:00,40.7,26.6,30.35,ESE,113,0.7,0.9,57,0.00,,,0.00,WUHU216HW,2013-01-08 23:35:00,
2013-01-08 18:40:00,40.5,28.1,30.36,ENE,68,0.4,0.9,61,0.00,,,0.00,WUHU216HW,2013-01-08 23:40:00,
2013-01-08 18:45:00,40.7,28.3,30.36,ENE,68,0.0,0.9,61,0.00,,,0.00,WUHU216HW,2013-01-08 23:45:00,
2013-01-08 18:50:00,40.3,27.9,30.36,East,90,0.0,0.9,61,0.00,,,0.00,WUHU216HW,2013-01-08 23:50:00,
2013-01-08 18:55:00,40.1,28.5,30.35,East,90,0.9,0.9,63,0.00,,,0.00,WUHU216HW,2013-01-08 23:55:00,
2013-01-08 19:00:00,40.0,28.7,30.35,East,90,0.7,0.9,64,0.00,,,0.00,WUHU216HW,2013-01-09 00:00:00,
2013-01-08 19:05:00,39.6,28.0,30.35,East,90,0.7,0.7,63,0.00,,,0.00,WUHU216HW,2013-01-09 00:05:00,
2013-01-08 19:10:00,39.4,28.2,30.35,ENE,68,1.1,1.1,64,0.00,,,0.00,WUHU216HW,2013-01-09 00:10:00,
2013-01-08 19:15:00,39.2,29.1,30.34,ENE,68,0.4,1.1,67,0.00,,,0.00,WUHU216HW,2013-01-09 00:15:00,
2013-01-08 19:20:00,39.4,29.3,30.35,NE,45,1.1,1.1,67,0.00,,,0.00,WUHU216HW,2013-01-09 00:20:00,
2013-01-08 19:25:00,39.2,28.4,30.35,NNE,23,0.0,1.1,65,0.00,,,0.00,WUHU216HW,2013-01-09 00:25:00,
2013-01-08 19:30:00,38.9,28.5,30.35,ENE,68,0.9,1.1,66,0.00,,,0.00,WUHU216HW,2013-01-09 00:30:00,
2013-01-08 19:35:00,38.5,27.7,30.35,ESE,113,0.4,0.9,65,0.00,,,0.00,WUHU216HW,2013-01-09 00:35:00,
2013-01-08 19:40:00,38.2,27.4,30.35,ESE,113,0.9,0.9,65,0.00,,,0.00,WUHU216HW,2013-01-09 00:40:00,
2013-01-08 19:45:00,37.8,27.5,30.35,ESE,113,0.7,1.3,66,0.00,,,0.00,WUHU216HW,2013-01-09 00:45:00,
2013-01-08 19:50:00,37.4,27.5,30.35,ESE,113,0.9,1.3,67,0.00,,,0.00,WUHU216HW,2013-01-09 00:50:00,
2013-01-08 19:55:00,37.1,26.7,30.35,SE,135,0.9,1.3,66,0.00,,,0.00,WUHU216HW,2013-01-09 00:55:00,
2013-01-08 20:00:00,36.7,26.5,30.35,SSE,158,0.4,1.3,66,0.00,,,0.00,WUHU216HW,2013-01-09 01:00:00,
2013-01-08 20:05:00,36.5,27.0,30.35,West,270,0.0,1.1,68,0.00,,,0.00,WUHU216HW,2013-01-09 01:05:00,
2013-01-08 20:10:00,36.4,27.2,30.36,West,270,0.0,0.4,69,0.00,,,0.00,WUHU216HW,2013-01-09 01:10:00,
2013-01-08 20:15:00,35.8,26.7,30.35,West,270,0.0,0.0,69,0.00,,,0.00,WUHU216HW,2013-01-09 01:15:00,
2013-01-08 20:20:00,35.6,26.5,30.35,West,270,0.0,0.0,69,0.00,,,0.00,WUHU216HW,2013-01-09 01:20:00,
2013-01-08 20:26:00,35.6,27.2,30.36,NW,315,0.4,0.7,71,0.00,,,0.00,WUHU216HW,2013-01-09 01:26:00,
2013-01-08 20:31:00,36.0,27.6,30.36,NW,315,0.0,0.7,71,0.00,,,0.00,WUHU216HW,2013-01-09 01:31:00,
2013-01-08 20:36:00,36.0,27.6,30.36,NW,315,0.0,0.4,71,0.00,,,0.00,WUHU216HW,2013-01-09 01:36:00,
2013-01-08 20:41:00,36.0,27.6,30.36,NW,315,0.0,0.0,71,0.00,,,0.00,WUHU216HW,2013-01-09 01:41:00,
2013-01-08 20:46:00,36.2,27.7,30.36,WNW,293,0.4,0.4,71,0.00,,,0.00,WUHU216HW,2013-01-09 01:46:00,
2013-01-08 20:51:00,34.9,26.1,30.36,WNW,293,0.9,1.1,70,0.00,,,0.00,WUHU216HW,2013-01-09 01:51:00,
2013-01-08 20:56:00,33.8,25.0,30.36,WNW,293,0.4,1.1,70,0.00,,,0.00,WUHU216HW,2013-01-09 01:56:00,
2013-01-08 21:01:00,33.5,25.0,30.36,WNW,293,0.0,0.9,71,0.00,,,0.00,WUHU216HW,2013-01-09 02:01:00,
2013-01-08 21:06:00,33.1,25.0,30.36,West,270,0.0,0.4,72,0.00,,,0.00,WUHU216HW,2013-01-09 02:06:00,
2013-01-08 21:11:00,32.9,24.8,30.36,West,270,0.0,0.0,72,0.00,,,0.00,WUHU216HW,2013-01-09 02:11:00,
2013-01-08 21:16:00,32.8,24.7,30.37,West,270,0.7,0.7,72,0.00,,,0.00,WUHU216HW,2013-01-09 02:16:00,
2013-01-08 21:21:00,32.0,24.0,30.37,West,270,0.7,1.1,72,0.00,,,0.00,WUHU216HW,2013-01-09 02:21:00,
2013-01-08 21:26:00,31.3,23.3,30.37,West,270,0.0,1.1,72,0.00,,,0.00,WUHU216HW,2013-01-09 02:26:00,
2013-01-08 21:31:00,30.8,22.8,30.37,West,270,0.0,0.7,72,0.00,,,0.00,WUHU216HW,2013-01-09 02:31:00,
2013-01-08 21:36:00,30.2,22.6,30.37,West,270,0.0,0.4,73,0.00,,,0.00,WUHU216HW,2013-01-09 02:36:00,
2013-01-08 21:41:00,30.4,23.0,30.37,NW,315,0.7,0.7,74,0.00,,,0.00,WUHU216HW,2013-01-09 02:41:00,
2013-01-08 21:46:00,30.6,23.6,30.37,NW,315,0.4,0.7,75,0.00,,,0.00,WUHU216HW,2013-01-09 02:46:00,
2013-01-08 21:51:00,30.6,23.6,30.37,NW,315,0.0,0.7,75,0.00,,,0.00,WUHU216HW,2013-01-09 02:51:00,
2013-01-08 21:56:00,30.6,23.6,30.37,NW,315,0.4,0.7,75,0.00,,,0.00,WUHU216HW,2013-01-09 02:56:00,
2013-01-08 22:01:00,30.8,23.8,30.37,NW,315,0.0,0.7,75,0.00,,,0.00,WUHU216HW,2013-01-09 03:01:00,
2013-01-08 22:06:00,31.3,24.3,30.37,NW,315,0.7,0.9,75,0.00,,,0.00,WUHU216HW,2013-01-09 03:06:00,
2013-01-08 22:11:00,31.5,24.9,30.37,NW,315,0.0,0.9,76,0.00,,,0.00,WUHU216HW,2013-01-09 03:11:00,
2013-01-08 22:16:00,31.0,24.3,30.37,NW,315,0.0,0.7,76,0.00,,,0.00,WUHU216HW,2013-01-09 03:16:00,
2013-01-08 22:21:00,30.6,23.6,30.37,NW,315,0.0,0.0,75,0.00,,,0.00,WUHU216HW,2013-01-09 03:21:00,
2013-01-08 22:26:00,30.6,24.0,30.37,NW,315,0.0,0.0,76,0.00,,,0.00,WUHU216HW,2013-01-09 03:26:00,
2013-01-08 22:31:00,30.6,24.0,30.37,NW,315,0.0,0.0,76,0.00,,,0.00,WUHU216HW,2013-01-09 03:31:00,
2013-01-08 22:36:00,30.2,23.6,30.37,NW,315,0.0,0.0,76,0.00,,,0.00,WUHU216HW,2013-01-09 03:36:00,
2013-01-08 22:41:00,30.2,23.6,30.37,NW,315,0.0,0.0,76,0.00,,,0.00,WUHU216HW,2013-01-09 03:41:00,
2013-01-08 22:46:00,30.2,23.6,30.37,NW,315,0.0,0.0,76,0.00,,,0.00,WUHU216HW,2013-01-09 03:46:00,
2013-01-08 23:00:00,29.9,22.9,30.37,NW,315,0.0,0.0,75,0.00,,,0.00,WUHU216HW,2013-01-09 04:00:00,
2013-01-08 23:05:00,29.9,23.2,30.36,WSW,248,0.0,0.0,76,0.00,,,0.00,WUHU216HW,2013-01-09 04:05:00,
2013-01-08 23:10:00,29.7,22.7,30.36,WNW,293,0.0,0.0,75,0.00,,,0.00,WUHU216HW,2013-01-09 04:10:00,
2013-01-08 23:15:00,30.2,24.2,30.36,NW,315,0.4,0.7,78,0.00,,,0.00,WUHU216HW,2013-01-09 04:15:00,
2013-01-08 23:20:00,30.8,24.4,30.36,NNW,338,1.1,1.1,77,0.00,,,0.00,WUHU216HW,2013-01-09 04:20:00,
2013-01-08 23:25:00,31.0,24.6,30.36,NNW,338,0.4,1.1,77,0.00,,,0.00,WUHU216HW,2013-01-09 04:25:00,
2013-01-08 23:30:00,31.3,24.9,30.36,NW,315,0.7,1.1,77,0.00,,,0.00,WUHU216HW,2013-01-09 04:30:00,
2013-01-08 23:35:00,31.9,25.2,30.36,WNW,293,0.9,1.1,76,0.00,,,0.00,WUHU216HW,2013-01-09 04:35:00,
2013-01-08 23:40:00,32.0,25.4,30.36,WNW,293,0.4,1.1,76,0.00,,,0.00,WUHU216HW,2013-01-09 04:40:00,
2013-01-08 23:45:00,32.2,25.5,30.36,WNW,293,0.0,0.7,76,0.00,,,0.00,WUHU216HW,2013-01-09 04:45:00,
2013-01-08 23:50:00,32.0,25.0,30.36,West,270,1.3,1.3,75,0.00,,,0.00,WUHU216HW,2013-01-09 04:50:00,
2013-01-08 23:51:00,31.5,24.9,30.36,West,270,0.9,1.6,76,0.00,,,0.00,WUHU216HW,2013-01-09 04:51:00,
2013-01-08 23:55:00,31.5,24.9,30.36,West,270,0.9,1.6,76,0.00,,,0.00,WUHU216HW,2013-01-09 04:55:00,